Novato, CA

5:41 AM PST on December 10, 2016 (GMT -0800)
Hidden Oaks | | Change Station

Elev 79 ft 38.12 °N, 122.58 °W | Updated 9 seconds ago

Overcast
Overcast
59.9 °F
Feels Like 59.9 °F
N
2.5
Wind Variable Wind from SSE
Gusts 2.5 mph

Today
High -- | Low -- °F
--% Chance of Precip.
Yesterday
High -- | Low -- °F
Precip. -- in
Pressure 30.07 in
Visibility 10.0 miles
Clouds Overcast 800 ft
Dew Point 58 °F
Humidity 94%
Rainfall 0.11 in
Snow Depth Not available.
7:16 AM 4:50 PM
Waxing Gibbous, 83% visible
METAR KO69 101335Z AUTO 25008G14KT 230V300 10SM OVC008 15/14 A3007 RMK AO1
Pressure 30.07 in
Visibility 10.0 miles
Clouds Overcast 800 ft
Dew Point 58 °F
Humidity 94%
Rainfall 0.11 in
Snow Depth Not available.
7:16 AM 4:50 PM
Waxing Gibbous, 83% visible
METAR KO69 101335Z AUTO 25008G14KT 230V300 10SM OVC008 15/14 A3007 RMK AO1

10-Day Weather Forecast

Almanac

Astronomy

Dec. 10, 2016 Rise Set
Actual Time
Civil Twilight
Nautical Twilight
Astronomical Twilight
Moon
Length of Visible Light
Length of Day
Tomorrow will be .
, % of the Moon is Illuminated

Today's Extremes

State Highs State Lows

Community

WunderPhotos

Upload Photos

1,956,540 photos uploaded!

WunderBlog® & News

Nearby

Air Quality

  Air Quality AQ Index Pollutant
Not available.

Snow Depth

Station Depth Elevation

Earthquake Activity

City Distance Mag. Time & Date
Minimum magnitude displayed is 2.5.

Coastal Water Temperatures

Place Temperature

Stations

Nearby Weather Stations

Station Location Temp. Windchill Dew Point Humidity Wind Precip. Elev Updated Type
                   

Watches & Warnings

There are currently no watches in effect.